Airfield :
LOGIN :

Register | Disclaimer

   EN    FR    IT 

 










Legend :    VFR   Marginal VFR   IFR   Intensive IFR   Very Intensive IFR
Visi :
Ceiling :
>= 8 km
>= 3000ft
5 to 8 km
1000 to 3000 ft
1500m to 5 km
500 to 1000 ft
800 to 1500m
200 to 500 ft
< 800m
< 200 ft
Symbols :   Thunderstorms  Fog  Heavy snow  Heavy precipitations  Wind > 20 kt
SIGMETs :     Misc.  Thunderstorms  Icing  Turbulence  Mountain Waves  Volcanic Ashes






- Airport Elevation : 1504 ft
- IATA code : PNA


LEPP - Noain Pamplona

CURRENT METAR :
  • 231800Z 28003KT 250V310 CAVOK 13/07 Q1022

EXPIRED METARs :
  • 231730Z 34006KT CAVOK 14/07 Q1021
  • 231700Z 32006KT CAVOK 16/06 Q1021
  • 231630Z 32005KT CAVOK 17/05 Q1021
  • 231600Z 00000KT CAVOK 18/04 Q1021
  • 231530Z 34001KT CAVOK 18/03 Q1021

TAF TAF LEPP
Valid from the 23 at 15:00 until the 24 at 15:00 UTC


231400Z 2315/2415 VRB05KT 9999 FEW030 TX20/2413Z TN04/2407Z
PROB40
TEMPO 2315/2318 34010KT
PROB40
TEMPO 2410/2415 18010KT



MET'MAP, your aeronautical weather chart ! - Copyright ORBIFLY December 2007 - Disclaimer

ORBIFLY MET'MAP TEAM :

Programming & Development : Alexandra Zaïnal
Concept & original design : Baudouin d'Aumeries
Assistance for programming : Marc-Olivier Méhu
Technical & hardware support : Manuel Goepfert

Contact : metmap@orbifly.com




SOURCES & CREDITS :

   NOAA